createdAt,value
2023-01-25T00:00:17.894Z,56.11
2023-01-25T00:02:44.550Z,55.19
2023-01-25T00:05:11.052Z,54.29
2023-01-25T00:07:37.639Z,53.59
2023-01-25T00:10:04.292Z,53.38
2023-01-25T00:12:30.930Z,53.83
2023-01-25T00:14:57.412Z,54.22
2023-01-25T00:17:23.900Z,53.22
2023-01-25T00:19:50.817Z,55.02
2023-01-25T00:22:17.230Z,55.36
2023-01-25T00:24:43.685Z,54.73
2023-01-25T00:27:10.309Z,53.94
2023-01-25T00:29:36.790Z,52.64
2023-01-25T00:32:03.289Z,53.96
2023-01-25T00:34:29.968Z,54.65
2023-01-25T00:36:56.562Z,54.71
2023-01-25T00:39:23.001Z,56.13
2023-01-25T00:41:49.391Z,55.45
2023-01-25T00:44:15.813Z,55.32
2023-01-25T00:46:42.363Z,56.85
2023-01-25T00:49:09.184Z,56.18
2023-01-25T00:51:35.700Z,55.15
2023-01-25T00:54:03.401Z,55.35
2023-01-25T00:56:29.916Z,54.68
2023-01-25T00:58:56.260Z,55.36
2023-01-25T01:01:22.829Z,54.56
2023-01-25T01:03:49.337Z,56.69
2023-01-25T01:06:15.962Z,55.49
2023-01-25T01:08:42.566Z,55.46
2023-01-25T01:11:08.986Z,55.20
2023-01-25T01:13:35.408Z,55.49
2023-01-25T01:16:01.834Z,55.52
2023-01-25T01:18:28.339Z,56.17
2023-01-25T01:20:54.997Z,57.42
2023-01-25T01:23:21.785Z,57.21
2023-01-25T01:25:48.214Z,56.40
2023-01-25T01:28:14.918Z,57.11
2023-01-25T01:30:41.370Z,55.45
2023-01-25T01:33:07.949Z,54.17
2023-01-25T01:35:34.593Z,54.65
2023-01-25T01:38:01.135Z,54.36
2023-01-25T01:40:27.601Z,54.57
2023-01-25T01:42:56.686Z,54.26
2023-01-25T01:45:23.323Z,53.60
2023-01-25T01:47:49.919Z,53.13
2023-01-25T01:50:16.341Z,52.99
2023-01-25T01:52:42.781Z,53.20
2023-01-25T01:55:10.892Z,52.62
2023-01-25T01:57:39.947Z,53.04
2023-01-25T02:00:06.429Z,52.52
2023-01-25T02:02:32.940Z,53.72
2023-01-25T02:04:59.587Z,54.11
2023-01-25T02:07:26.462Z,54.35
2023-01-25T02:09:52.839Z,55.01
2023-01-25T02:12:19.658Z,53.72
2023-01-25T02:14:46.069Z,53.75
2023-01-25T02:17:12.496Z,54.50
2023-01-25T02:19:38.995Z,54.68
2023-01-25T02:22:06.347Z,54.80
2023-01-25T02:24:32.793Z,55.50
2023-01-25T02:26:59.227Z,54.63
2023-01-25T02:29:25.598Z,56.27
2023-01-25T02:31:52.071Z,54.27
2023-01-25T02:34:18.930Z,55.06
2023-01-25T02:36:45.287Z,57.21
2023-01-25T02:39:11.847Z,57.38
2023-01-25T02:41:38.232Z,56.33
2023-01-25T02:44:04.719Z,56.35
2023-01-25T02:46:31.628Z,55.46
2023-01-25T02:48:58.112Z,54.72
2023-01-25T02:51:24.575Z,56.84
2023-01-25T02:53:50.989Z,57.07
2023-01-25T02:56:17.381Z,55.95
2023-01-25T02:58:44.411Z,54.42
2023-01-25T03:01:10.928Z,55.25
2023-01-25T03:03:37.733Z,55.91
2023-01-25T03:06:04.155Z,55.09
2023-01-25T03:08:31.004Z,55.40
2023-01-25T03:10:57.393Z,55.60
2023-01-25T03:13:23.873Z,55.51
2023-01-25T03:15:50.337Z,56.12
2023-01-25T03:18:16.757Z,57.22
2023-01-25T03:20:43.310Z,56.26
2023-01-25T03:23:09.755Z,56.54
2023-01-25T03:25:36.166Z,57.96
2023-01-25T03:28:02.638Z,58.01
2023-01-25T03:30:29.205Z,56.29
2023-01-25T03:32:55.962Z,55.46
2023-01-25T03:35:22.485Z,54.88
2023-01-25T03:37:48.894Z,54.58
2023-01-25T03:40:15.578Z,56.01
2023-01-25T03:42:42.017Z,55.52
2023-01-25T03:45:09.024Z,56.05
2023-01-25T03:47:35.594Z,55.85
2023-01-25T03:50:02.143Z,56.61
2023-01-25T03:52:28.633Z,56.34
2023-01-25T03:54:55.063Z,56.22
2023-01-25T03:57:22.517Z,56.48
2023-01-25T03:59:49.038Z,55.93
2023-01-25T04:02:15.530Z,54.79
2023-01-25T04:04:42.215Z,55.78
2023-01-25T04:07:09.644Z,56.10
2023-01-25T04:09:36.070Z,54.49
2023-01-25T04:12:02.893Z,54.56
2023-01-25T04:14:43.701Z,54.30
2023-01-25T04:17:10.979Z,55.01
2023-01-25T04:19:37.558Z,56.60
2023-01-25T04:22:04.045Z,56.97
2023-01-25T04:24:30.476Z,56.73
2023-01-25T04:26:57.027Z,56.31
2023-01-25T04:29:31.652Z,55.71
2023-01-25T04:32:05.868Z,57.35
2023-01-25T04:34:32.471Z,56.78
2023-01-25T04:36:59.042Z,55.54
2023-01-25T04:39:25.880Z,55.81
2023-01-25T04:41:52.338Z,55.37
2023-01-25T04:44:18.762Z,55.97
2023-01-25T04:46:45.304Z,55.05
2023-01-25T04:49:11.773Z,55.58
2023-01-25T04:51:38.417Z,56.72
2023-01-25T04:54:04.873Z,54.95
2023-01-25T04:56:31.405Z,55.01
2023-01-25T04:58:58.410Z,55.75
2023-01-25T05:01:24.848Z,56.22
2023-01-25T05:03:51.238Z,55.86
2023-01-25T05:06:17.956Z,55.41
2023-01-25T05:08:44.809Z,56.12
2023-01-25T05:11:12.719Z,55.78
2023-01-25T05:13:39.520Z,55.13
2023-01-25T05:16:07.301Z,54.86
2023-01-25T05:18:47.532Z,55.44
2023-01-25T05:21:15.339Z,54.95
2023-01-25T05:23:41.755Z,55.35
2023-01-25T05:26:08.198Z,55.73
2023-01-25T05:28:34.915Z,57.09
2023-01-25T05:31:01.464Z,55.92
2023-01-25T05:33:27.904Z,56.05
2023-01-25T05:35:54.368Z,56.18
2023-01-25T05:38:21.082Z,55.92
2023-01-25T05:40:47.583Z,56.04
2023-01-25T05:43:14.489Z,55.75
2023-01-25T05:45:41.074Z,55.86
2023-01-25T05:48:07.563Z,56.17
2023-01-25T05:50:34.284Z,57.71
2023-01-25T05:53:01.686Z,57.51
2023-01-25T05:55:28.076Z,56.90
2023-01-25T05:57:54.636Z,56.69
2023-01-25T06:00:21.163Z,57.72
2023-01-25T06:02:47.686Z,58.40
2023-01-25T06:05:14.584Z,57.35
2023-01-25T06:07:42.217Z,55.90
2023-01-25T06:10:08.782Z,55.59
2023-01-25T06:12:35.336Z,55.23
2023-01-25T06:15:01.767Z,54.72
2023-01-25T06:17:28.225Z,55.07
2023-01-25T06:19:54.902Z,54.50
2023-01-25T06:22:21.397Z,53.68
2023-01-25T06:24:50.844Z,54.90
2023-01-25T06:27:17.470Z,56.17
2023-01-25T06:29:44.411Z,56.06
2023-01-25T06:32:10.949Z,55.27
2023-01-25T06:34:37.476Z,55.92
2023-01-25T06:37:04.229Z,56.66
2023-01-25T06:39:30.681Z,56.05
2023-01-25T06:41:57.081Z,55.86
2023-01-25T06:44:23.447Z,56.00
2023-01-25T06:46:49.945Z,55.50
2023-01-25T06:49:16.414Z,55.93
2023-01-25T06:51:43.323Z,56.26
2023-01-25T06:54:10.323Z,55.14
2023-01-25T06:56:36.727Z,55.00
2023-01-25T06:59:03.270Z,55.68
2023-01-25T07:01:29.780Z,55.96
2023-01-25T07:03:56.203Z,55.51
2023-01-25T07:06:22.713Z,54.62
2023-01-25T07:08:49.398Z,54.34
2023-01-25T07:11:16.059Z,53.86
2023-01-25T07:13:42.877Z,54.81
2023-01-25T07:16:09.612Z,56.38
2023-01-25T07:18:36.025Z,55.63
2023-01-25T07:21:02.809Z,53.99
2023-01-25T07:23:29.259Z,55.45
2023-01-25T07:25:55.672Z,55.68
2023-01-25T07:28:22.439Z,56.04
2023-01-25T07:30:48.874Z,55.98
2023-01-25T07:33:15.319Z,58.05
2023-01-25T07:35:41.764Z,55.91
2023-01-25T07:38:08.281Z,55.48
2023-01-25T07:40:34.866Z,55.45
2023-01-25T07:43:01.708Z,55.08
2023-01-25T07:45:28.161Z,55.66
2023-01-25T07:47:54.675Z,54.73
2023-01-25T07:50:21.338Z,53.78
2023-01-25T07:52:47.785Z,53.74
2023-01-25T07:55:14.202Z,54.28
2023-01-25T07:57:40.666Z,54.67
2023-01-25T08:00:07.762Z,55.26
2023-01-25T08:02:34.595Z,57.04
2023-01-25T08:05:01.007Z,57.44
2023-01-25T08:07:27.469Z,56.08
2023-01-25T08:09:54.432Z,55.40
2023-01-25T08:12:21.002Z,55.74
2023-01-25T08:14:47.772Z,55.45
2023-01-25T08:17:14.318Z,54.47
2023-01-25T08:19:41.014Z,55.66
2023-01-25T08:22:10.407Z,55.49
2023-01-25T08:24:36.901Z,55.11
2023-01-25T08:27:03.353Z,55.01
2023-01-25T08:29:29.774Z,55.02
2023-01-25T08:31:58.205Z,54.75
2023-01-25T08:34:24.879Z,55.51
2023-01-25T08:39:18.645Z,54.42
2023-01-25T08:41:45.099Z,53.76
2023-01-25T08:44:11.545Z,53.74
2023-01-25T08:46:38.050Z,52.75
2023-01-25T08:49:04.492Z,54.65
2023-01-25T08:51:31.264Z,54.01
2023-01-25T08:53:57.787Z,53.02
2023-01-25T08:56:25.609Z,53.85
2023-01-25T08:58:52.827Z,53.96
2023-01-25T09:01:19.573Z,53.90
2023-01-25T09:03:46.088Z,53.34
2023-01-25T09:06:12.550Z,54.83
2023-01-25T09:08:39.245Z,55.95
2023-01-25T09:11:06.338Z,55.55
2023-01-25T09:13:32.725Z,54.44
2023-01-25T09:15:59.235Z,53.73
2023-01-25T09:18:26.082Z,53.26
2023-01-25T09:20:52.502Z,54.07
2023-01-25T09:23:19.426Z,53.20
2023-01-25T09:25:46.127Z,53.65
2023-01-25T09:28:12.617Z,53.33
2023-01-25T09:30:47.249Z,54.95
2023-01-25T09:33:15.298Z,54.98
2023-01-25T09:35:41.975Z,56.86
2023-01-25T09:38:08.445Z,55.58
2023-01-25T09:40:35.978Z,54.65
2023-01-25T09:43:02.434Z,53.93
2023-01-25T09:45:29.311Z,54.28
2023-01-25T09:47:55.732Z,53.86
2023-01-25T09:50:22.185Z,54.70
2023-01-25T09:52:49.961Z,53.29
2023-01-25T09:55:16.812Z,54.60
2023-01-25T09:57:43.375Z,53.79
2023-01-25T10:00:10.248Z,54.19
2023-01-25T10:02:37.022Z,53.79
2023-01-25T10:05:03.629Z,54.78
2023-01-25T10:07:30.276Z,55.92
2023-01-25T10:09:56.639Z,54.83
2023-01-25T10:12:23.083Z,54.31
2023-01-25T10:14:49.744Z,53.94
2023-01-25T10:17:16.488Z,54.18
2023-01-25T10:19:43.121Z,54.12
2023-01-25T10:22:09.555Z,54.73
2023-01-25T10:24:36.207Z,55.75
2023-01-25T10:27:02.676Z,54.96
2023-01-25T10:29:29.142Z,54.94
2023-01-25T10:31:55.702Z,54.51
2023-01-25T10:34:23.243Z,53.81
2023-01-25T10:36:49.709Z,54.37
2023-01-25T10:39:16.198Z,52.42
2023-01-25T10:41:42.726Z,51.63
2023-01-25T10:44:09.209Z,52.67
2023-01-25T10:46:35.753Z,54.38
2023-01-25T10:49:02.584Z,55.46
2023-01-25T10:51:29.054Z,55.06
2023-01-25T10:53:55.610Z,56.33
2023-01-25T10:56:22.144Z,56.73
2023-01-25T10:58:48.603Z,54.59
2023-01-25T11:01:15.141Z,54.62
2023-01-25T11:03:41.887Z,54.44
2023-01-25T11:06:08.390Z,53.63
2023-01-25T11:08:36.307Z,55.41
2023-01-25T11:11:03.715Z,54.81
2023-01-25T11:13:30.243Z,53.23
2023-01-25T11:15:56.728Z,53.71
2023-01-25T11:18:23.266Z,52.78
2023-01-25T11:20:49.770Z,53.60
2023-01-25T11:23:16.368Z,55.03
2023-01-25T11:25:44.359Z,53.85
2023-01-25T11:28:10.793Z,54.17
2023-01-25T11:30:39.222Z,54.17
2023-01-25T11:33:05.814Z,52.76
2023-01-25T11:35:32.161Z,53.28
2023-01-25T11:37:58.623Z,52.33
2023-01-25T11:40:25.051Z,52.63
2023-01-25T11:42:51.683Z,53.89
2023-01-25T11:45:18.137Z,53.05
2023-01-25T11:47:44.574Z,53.56
2023-01-25T11:50:11.719Z,53.35
2023-01-25T11:52:38.392Z,53.59
2023-01-25T11:55:04.759Z,53.35
2023-01-25T11:57:32.763Z,54.39
2023-01-25T12:00:00.222Z,53.91
2023-01-25T12:02:26.826Z,55.12
2023-01-25T12:04:53.327Z,53.76
2023-01-25T12:07:19.795Z,54.38
2023-01-25T12:09:46.214Z,54.18
2023-01-25T12:12:13.115Z,54.34
2023-01-25T12:14:39.514Z,55.38
2023-01-25T12:17:08.923Z,53.54
2023-01-25T12:19:35.337Z,55.07
2023-01-25T12:22:01.789Z,55.15
2023-01-25T12:24:28.600Z,55.75
2023-01-25T12:26:55.055Z,55.54
2023-01-25T12:29:21.517Z,54.80
2023-01-25T12:31:49.019Z,55.43
2023-01-25T12:34:15.501Z,54.75
2023-01-25T12:36:45.063Z,53.99
2023-01-25T12:39:11.878Z,54.66
2023-01-25T12:41:38.966Z,53.28
2023-01-25T12:44:05.436Z,54.33
2023-01-25T12:46:32.155Z,56.62
2023-01-25T12:48:58.726Z,56.30
2023-01-25T12:51:26.191Z,56.65
2023-01-25T12:53:52.625Z,55.48
2023-01-25T12:56:19.272Z,55.24
2023-01-25T12:58:46.117Z,54.81
2023-01-25T13:01:12.929Z,56.67
2023-01-25T13:03:39.438Z,55.43
2023-01-25T13:06:06.399Z,54.50
2023-01-25T13:08:33.000Z,53.65
2023-01-25T13:10:59.375Z,52.49
2023-01-25T13:13:25.843Z,52.97
2023-01-25T13:15:52.323Z,53.26
2023-01-25T13:18:19.221Z,53.91
2023-01-25T13:20:45.610Z,53.12
2023-01-25T13:23:12.075Z,54.41
2023-01-25T13:25:38.554Z,53.39
2023-01-25T13:28:05.083Z,53.03
2023-01-25T13:30:31.587Z,52.37
2023-01-25T13:32:58.117Z,52.00
2023-01-25T13:35:24.591Z,51.39
2023-01-25T13:37:51.303Z,51.80
2023-01-25T13:40:18.011Z,53.36
2023-01-25T13:42:44.446Z,53.69
2023-01-25T13:45:13.498Z,53.58
2023-01-25T13:47:40.446Z,55.41
2023-01-25T13:50:06.919Z,53.31
2023-01-25T13:52:33.630Z,51.90
2023-01-25T13:55:01.500Z,51.99
2023-01-25T13:57:27.972Z,53.50
2023-01-25T14:00:01.983Z,54.16
2023-01-25T14:02:32.297Z,53.33
2023-01-25T14:04:59.510Z,52.40
2023-01-25T14:07:27.016Z,52.97
2023-01-25T14:09:53.484Z,53.32
2023-01-25T14:12:19.897Z,53.24
2023-01-25T14:14:46.349Z,53.91
2023-01-25T14:17:12.766Z,52.77
2023-01-25T14:19:39.368Z,52.65
2023-01-25T14:22:05.714Z,52.20
2023-01-25T14:24:33.244Z,51.85
2023-01-25T14:26:59.666Z,51.07
2023-01-25T14:29:33.575Z,51.59
2023-01-25T14:32:00.452Z,52.94
2023-01-25T14:34:26.860Z,53.62
2023-01-25T14:36:53.297Z,52.97
2023-01-25T14:39:19.785Z,54.05
2023-01-25T14:41:59.281Z,54.79
2023-01-25T14:44:27.865Z,54.23
2023-01-25T14:46:54.321Z,54.66
2023-01-25T14:49:21.017Z,56.05
2023-01-25T14:51:47.512Z,55.72
2023-01-25T14:54:14.274Z,56.11
2023-01-25T14:56:40.686Z,55.64
2023-01-25T14:59:08.613Z,58.46
2023-01-25T15:01:35.258Z,56.05
2023-01-25T15:04:01.703Z,55.08
2023-01-25T15:06:28.191Z,54.13
2023-01-25T15:08:54.732Z,53.76
2023-01-25T15:11:21.420Z,54.49
2023-01-25T15:13:47.944Z,55.18
2023-01-25T15:16:14.454Z,55.29
2023-01-25T15:18:40.903Z,55.85
2023-01-25T15:21:07.885Z,55.45
2023-01-25T15:23:34.382Z,54.83
2023-01-25T15:26:01.159Z,55.25
2023-01-25T15:28:27.629Z,54.79
2023-01-25T15:30:54.186Z,55.87
2023-01-25T15:33:20.976Z,57.16
2023-01-25T15:35:47.568Z,56.18
2023-01-25T15:38:13.962Z,55.99
2023-01-25T15:40:40.380Z,54.70
2023-01-25T15:43:07.063Z,55.14
2023-01-25T15:45:34.369Z,55.09
2023-01-25T15:48:01.194Z,53.73
2023-01-25T15:50:27.658Z,54.34
2023-01-25T15:52:54.403Z,55.04
2023-01-25T15:55:20.847Z,54.58
2023-01-25T15:57:47.260Z,53.79
2023-01-25T16:00:15.329Z,53.30
2023-01-25T16:02:42.465Z,53.17
2023-01-25T16:05:10.172Z,52.88
2023-01-25T16:07:38.681Z,52.77
2023-01-25T16:10:05.472Z,55.04
2023-01-25T16:12:32.168Z,54.35
2023-01-25T16:14:58.716Z,55.54
2023-01-25T16:17:25.444Z,54.61
2023-01-25T16:19:52.020Z,53.91
2023-01-25T16:22:18.531Z,52.94
2023-01-25T16:24:45.186Z,52.85
2023-01-25T16:27:11.726Z,51.97
2023-01-25T16:29:38.216Z,52.52
2023-01-25T16:32:06.217Z,52.74
2023-01-25T16:34:33.134Z,53.02
2023-01-25T16:36:59.824Z,54.01
2023-01-25T16:39:26.866Z,54.48
2023-01-25T16:41:55.231Z,53.48
2023-01-25T16:44:23.149Z,52.92
2023-01-25T16:46:50.421Z,52.59
2023-01-25T16:49:19.000Z,51.70
2023-01-25T16:51:45.941Z,51.30
2023-01-25T16:54:12.957Z,52.05
2023-01-25T16:56:40.061Z,51.98
2023-01-25T16:59:07.278Z,51.71
2023-01-25T17:01:35.114Z,51.99
2023-01-25T17:04:02.098Z,51.52
2023-01-25T17:06:29.291Z,51.90
2023-01-25T17:09:09.445Z,52.29
2023-01-25T17:11:40.118Z,52.01
2023-01-25T17:14:06.974Z,52.27
2023-01-25T17:16:34.331Z,52.94
2023-01-25T17:19:01.280Z,53.05
2023-01-25T17:21:29.067Z,52.67
2023-01-25T17:23:55.926Z,53.86
2023-01-25T17:26:22.525Z,53.07
2023-01-25T17:28:49.678Z,53.59
2023-01-25T17:31:17.834Z,54.61
2023-01-25T17:33:44.659Z,54.76
2023-01-25T17:36:11.898Z,54.33
2023-01-25T17:38:38.828Z,53.68
2023-01-25T17:41:06.159Z,52.70
2023-01-25T17:43:34.504Z,53.64
2023-01-25T17:46:01.827Z,53.25
2023-01-25T17:48:28.853Z,53.16
2023-01-25T17:50:56.470Z,52.41
2023-01-25T17:53:24.365Z,51.96
2023-01-25T17:55:51.315Z,52.57
2023-01-25T17:58:17.865Z,52.95
2023-01-25T18:00:44.516Z,53.19
2023-01-25T18:03:11.077Z,52.15
2023-01-25T18:05:41.666Z,51.69
2023-01-25T18:08:08.392Z,51.00
2023-01-25T18:10:35.792Z,51.12
2023-01-25T18:13:04.831Z,51.06
2023-01-25T18:15:32.260Z,51.22
2023-01-25T18:17:59.648Z,51.66
2023-01-25T18:20:28.682Z,51.63
2023-01-25T18:22:58.985Z,51.86
2023-01-25T18:25:25.960Z,51.83
2023-01-25T18:27:53.142Z,51.74
2023-01-25T18:30:20.117Z,51.56
2023-01-25T18:32:47.355Z,52.07
2023-01-25T18:35:15.255Z,52.21
2023-01-25T18:37:42.787Z,52.32
2023-01-25T18:40:17.087Z,52.07
2023-01-25T18:42:45.304Z,52.46
2023-01-25T18:45:13.915Z,51.80
2023-01-25T18:47:44.304Z,51.62
2023-01-25T18:50:11.669Z,51.56
2023-01-25T18:52:39.263Z,51.47
2023-01-25T18:55:06.322Z,51.48
2023-01-25T18:57:33.489Z,51.43
2023-01-25T19:00:00.481Z,51.68
2023-01-25T19:02:28.920Z,51.75
2023-01-25T19:04:55.572Z,52.30
2023-01-25T19:07:22.855Z,51.80
2023-01-25T19:09:49.534Z,51.28
2023-01-25T19:12:16.815Z,51.23
2023-01-25T19:14:44.490Z,51.71
2023-01-25T19:17:13.509Z,52.22
2023-01-25T19:19:41.302Z,51.90
2023-01-25T19:22:09.053Z,51.90
2023-01-25T19:24:36.957Z,54.80
2023-01-25T19:27:06.137Z,55.10
2023-01-25T19:29:33.477Z,54.85
2023-01-25T19:32:00.300Z,54.25
2023-01-25T19:34:27.344Z,53.63
2023-01-25T19:36:54.305Z,53.39
2023-01-25T19:39:21.598Z,52.85
2023-01-25T19:41:49.847Z,52.43
2023-01-25T19:44:16.784Z,52.44
2023-01-25T19:46:47.907Z,52.85
2023-01-25T19:49:14.991Z,53.03
2023-01-25T19:51:43.629Z,52.60
2023-01-25T19:54:10.753Z,52.42
2023-01-25T19:56:38.229Z,52.35
2023-01-25T19:59:07.465Z,52.36
2023-01-25T20:01:35.758Z,52.60
2023-01-25T20:04:02.970Z,52.56
2023-01-25T20:06:30.587Z,52.54
2023-01-25T20:08:58.761Z,52.82
2023-01-25T20:11:26.003Z,52.81
2023-01-25T20:13:53.283Z,54.33
2023-01-25T20:16:20.434Z,54.05
2023-01-25T20:18:47.786Z,53.46
2023-01-25T20:21:17.500Z,53.62
2023-01-25T20:23:44.616Z,53.55
2023-01-25T20:26:12.677Z,53.57
2023-01-25T20:28:39.683Z,53.65
2023-01-25T20:31:08.006Z,53.34
2023-01-25T20:33:36.122Z,53.41
2023-01-25T20:36:04.042Z,54.05
2023-01-25T20:38:33.608Z,53.71
2023-01-25T20:41:00.824Z,53.46
2023-01-25T20:43:28.692Z,53.02
2023-01-25T20:45:56.802Z,52.67
2023-01-25T20:48:23.509Z,52.54
2023-01-25T20:50:50.550Z,52.74
2023-01-25T20:53:17.512Z,52.54
2023-01-25T20:55:51.713Z,52.34
2023-01-25T20:58:21.627Z,52.59
2023-01-25T21:00:50.887Z,52.43
2023-01-25T21:03:17.554Z,52.33
2023-01-25T21:05:44.646Z,51.63
2023-01-25T21:08:11.779Z,51.78
2023-01-25T21:10:39.321Z,52.17
2023-01-25T21:13:08.300Z,53.42
2023-01-25T21:15:35.233Z,53.19
2023-01-25T21:18:01.945Z,52.85
2023-01-25T21:20:29.639Z,52.48
2023-01-25T21:22:56.192Z,52.42
2023-01-25T21:25:26.395Z,52.60
2023-01-25T21:27:53.042Z,52.66
2023-01-25T21:30:23.238Z,52.06
2023-01-25T21:32:49.880Z,52.17
2023-01-25T21:35:16.597Z,52.19
2023-01-25T21:37:43.334Z,52.55
2023-01-25T21:40:10.078Z,52.49
2023-01-25T21:42:36.763Z,52.30
2023-01-25T21:45:03.813Z,52.24
2023-01-25T21:47:31.498Z,52.80
2023-01-25T21:49:58.296Z,52.34
2023-01-25T21:52:25.099Z,51.87
2023-01-25T21:54:51.643Z,52.31
2023-01-25T21:57:18.267Z,52.27
2023-01-25T21:59:45.381Z,52.37
2023-01-25T22:02:11.992Z,52.06
2023-01-25T22:04:39.851Z,52.12
2023-01-25T22:07:08.190Z,52.40
2023-01-25T22:09:34.888Z,52.91
2023-01-25T22:12:01.693Z,52.49
2023-01-25T22:14:28.118Z,52.70
2023-01-25T22:16:54.840Z,53.39
2023-01-25T22:19:21.441Z,53.50
2023-01-25T22:21:48.097Z,53.81
2023-01-25T22:24:14.610Z,53.84
2023-01-25T22:26:41.087Z,52.98
2023-01-25T22:29:07.511Z,53.26
2023-01-25T22:31:34.318Z,53.72
2023-01-25T22:34:01.540Z,54.40
2023-01-25T22:36:28.048Z,54.41
2023-01-25T22:38:54.974Z,54.95
2023-01-25T22:41:21.439Z,55.46
2023-01-25T22:43:47.925Z,55.00
2023-01-25T22:46:14.877Z,54.61
2023-01-25T22:48:41.357Z,54.25
2023-01-25T22:51:07.800Z,54.32
2023-01-25T22:53:34.752Z,54.64
2023-01-25T22:56:01.164Z,54.42
2023-01-25T22:58:27.823Z,54.68
2023-01-25T23:00:54.314Z,54.46
2023-01-25T23:03:21.141Z,54.57
2023-01-25T23:05:47.613Z,54.69
2023-01-25T23:08:14.035Z,54.98
2023-01-25T23:10:40.543Z,54.46
2023-01-25T23:13:06.978Z,54.21
2023-01-25T23:15:33.624Z,53.87
2023-01-25T23:18:00.062Z,54.14
2023-01-25T23:20:26.837Z,54.41
2023-01-25T23:22:53.448Z,54.21
2023-01-25T23:25:19.888Z,54.17
2023-01-25T23:27:48.562Z,54.18
2023-01-25T23:30:15.140Z,54.08
2023-01-25T23:32:42.315Z,54.01
2023-01-25T23:35:08.930Z,54.34
2023-01-25T23:37:35.459Z,54.43
2023-01-25T23:40:01.947Z,54.99
2023-01-25T23:42:28.630Z,55.76
2023-01-25T23:44:55.188Z,55.98
2023-01-25T23:47:21.636Z,55.34
2023-01-25T23:49:48.295Z,54.97
2023-01-25T23:52:14.963Z,54.83
2023-01-25T23:54:41.427Z,55.52
2023-01-25T23:57:07.873Z,55.08
2023-01-25T23:59:34.830Z,55.29
